createdAt,value
2023-04-18T00:01:05.901Z,4.70
2023-04-18T00:03:34.354Z,4.50
2023-04-18T00:06:01.663Z,4.90
2023-04-18T00:08:28.398Z,4.10
2023-04-18T00:10:54.997Z,4.30
2023-04-18T00:13:22.287Z,5.90
2023-04-18T00:15:48.861Z,5.40
2023-04-18T00:18:16.845Z,5.10
2023-04-18T00:20:45.585Z,4.90
2023-04-18T00:23:13.559Z,4.00
2023-04-18T00:25:40.252Z,5.20
2023-04-18T00:28:06.852Z,4.50
2023-04-18T00:30:33.437Z,4.30
2023-04-18T00:33:00.212Z,4.50
2023-04-18T00:35:26.798Z,4.30
2023-04-18T00:37:53.363Z,4.40
2023-04-18T00:40:19.895Z,4.50
2023-04-18T00:42:46.638Z,4.40
2023-04-18T00:45:14.074Z,4.50
2023-04-18T00:47:40.927Z,4.30
2023-04-18T00:50:09.286Z,5.10
2023-04-18T00:52:36.256Z,4.50
2023-04-18T00:55:06.378Z,4.20
2023-04-18T00:57:33.626Z,4.30
2023-04-18T01:00:01.625Z,4.60
2023-04-18T01:02:29.874Z,4.80
2023-04-18T01:04:58.110Z,4.60
2023-04-18T01:07:26.016Z,4.00
2023-04-18T01:09:55.194Z,4.00
2023-04-18T01:12:22.870Z,4.30
2023-04-18T01:14:49.355Z,4.30
2023-04-18T01:17:16.856Z,4.50
2023-04-18T01:19:46.202Z,5.30
2023-04-18T01:22:13.561Z,5.00
2023-04-18T01:24:41.596Z,4.70
2023-04-18T01:27:15.402Z,5.40
2023-04-18T01:29:41.899Z,4.50
2023-04-18T01:32:09.577Z,4.30
2023-04-18T01:34:37.032Z,5.60
2023-04-18T01:37:05.854Z,4.60
2023-04-18T01:39:32.976Z,5.30
2023-04-18T01:42:01.283Z,5.10
2023-04-18T01:44:27.839Z,4.90
2023-04-18T01:46:54.410Z,5.10
2023-04-18T01:49:20.988Z,5.00
2023-04-18T01:51:48.949Z,4.70
2023-04-18T01:54:15.725Z,4.60
2023-04-18T01:56:42.553Z,4.80
2023-04-18T01:59:09.107Z,4.30
2023-04-18T02:01:35.619Z,4.40
2023-04-18T02:04:02.296Z,4.90
2023-04-18T02:06:29.241Z,4.50
2023-04-18T02:08:55.792Z,4.10
2023-04-18T02:11:24.866Z,4.30
2023-04-18T02:13:51.556Z,4.70
2023-04-18T02:16:18.861Z,4.90
2023-04-18T02:18:45.547Z,4.60
2023-04-18T02:21:13.609Z,4.40
2023-04-18T02:23:40.090Z,5.80
2023-04-18T02:26:06.685Z,6.70
2023-04-18T02:28:33.537Z,4.80
2023-04-18T02:31:03.024Z,4.50
2023-04-18T02:33:30.187Z,4.50
2023-04-18T02:35:56.734Z,4.80
2023-04-18T02:38:23.415Z,4.20
2023-04-18T02:40:51.920Z,4.50
2023-04-18T02:43:20.290Z,4.80
2023-04-18T02:45:46.819Z,4.40
2023-04-18T02:48:14.894Z,4.40
2023-04-18T02:50:41.592Z,4.50
2023-04-18T02:53:08.139Z,5.40
2023-04-18T02:55:46.805Z,4.90
2023-04-18T02:58:13.357Z,4.80
2023-04-18T03:00:58.190Z,4.50
2023-04-18T03:03:43.602Z,4.90
2023-04-18T03:06:59.597Z,4.60
2023-04-18T03:09:28.793Z,4.80
2023-04-18T03:12:02.222Z,4.70
2023-04-18T03:14:32.184Z,4.70
2023-04-18T03:17:02.901Z,4.60
2023-04-18T03:19:36.485Z,4.90
2023-04-18T03:22:07.599Z,5.60
2023-04-18T03:24:37.072Z,4.70
2023-04-18T03:27:09.770Z,5.10
2023-04-18T03:29:38.598Z,4.90
2023-04-18T03:32:07.474Z,4.90
2023-04-18T03:34:36.190Z,5.00
2023-04-18T03:37:05.356Z,5.00
2023-04-18T03:39:36.522Z,5.30
2023-04-18T03:42:04.554Z,5.00
2023-04-18T03:44:32.903Z,5.10
2023-04-18T03:47:00.805Z,5.40
2023-04-18T03:49:29.529Z,5.00
2023-04-18T03:51:57.511Z,5.30
2023-04-18T03:54:25.712Z,5.10
2023-04-18T03:56:53.714Z,4.90
2023-04-18T03:59:21.888Z,5.60
2023-04-18T04:01:51.000Z,5.30
2023-04-18T04:04:19.527Z,5.50
2023-04-18T04:06:47.741Z,5.40
2023-04-18T04:09:18.915Z,5.70
2023-04-18T04:11:48.285Z,5.50
2023-04-18T04:14:16.343Z,6.20
2023-04-18T04:16:46.611Z,5.90
2023-04-18T04:19:17.781Z,6.40
2023-04-18T04:21:54.874Z,6.90
2023-04-18T04:24:23.068Z,5.80
2023-04-18T04:26:52.021Z,6.50
2023-04-18T04:29:23.917Z,6.50
2023-04-18T04:31:52.763Z,6.20
2023-04-18T04:34:28.048Z,6.90
2023-04-18T04:36:56.122Z,5.80
2023-04-18T04:39:25.556Z,5.30
2023-04-18T04:42:12.253Z,6.10
2023-04-18T04:44:50.420Z,6.20
2023-04-18T04:47:19.287Z,5.50
2023-04-18T04:49:47.184Z,5.70
2023-04-18T04:52:15.377Z,5.70
2023-04-18T04:54:45.010Z,6.00
2023-04-18T04:57:14.039Z,6.40
2023-04-18T04:59:42.046Z,6.10
2023-04-18T05:02:09.973Z,6.20
2023-04-18T05:04:38.332Z,6.60
2023-04-18T05:07:06.489Z,6.30
2023-04-18T05:09:34.509Z,6.70
2023-04-18T05:12:03.100Z,6.00
2023-04-18T05:14:31.458Z,6.70
2023-04-18T05:16:59.455Z,6.60
2023-04-18T05:19:27.572Z,5.90
2023-04-18T05:21:56.061Z,7.20
2023-04-18T05:24:23.969Z,6.90
2023-04-18T05:26:53.070Z,6.20
2023-04-18T05:29:22.092Z,6.80
2023-04-18T05:31:50.005Z,7.20
2023-04-18T05:34:17.925Z,6.00
2023-04-18T05:36:47.766Z,6.80
2023-04-18T05:39:17.199Z,6.50
2023-04-18T05:41:45.178Z,6.90
2023-04-18T05:44:13.125Z,6.90
2023-04-18T05:46:41.138Z,6.10
2023-04-18T05:49:09.055Z,6.20
2023-04-18T05:51:37.161Z,6.20
2023-04-18T05:54:05.099Z,6.40
2023-04-18T05:56:34.419Z,6.50
2023-04-18T05:59:02.391Z,6.60
2023-04-18T06:01:32.628Z,5.60
2023-04-18T06:04:01.198Z,5.70
2023-04-18T06:06:29.614Z,5.70
2023-04-18T06:08:57.485Z,5.40
2023-04-18T06:11:25.486Z,5.40
2023-04-18T06:13:56.256Z,5.40
2023-04-18T06:16:24.174Z,5.00
2023-04-18T06:18:52.154Z,5.60
2023-04-18T06:21:21.296Z,6.00
2023-04-18T06:23:49.244Z,5.60
2023-04-18T06:26:17.636Z,6.10
2023-04-18T06:28:45.562Z,5.50
2023-04-18T06:31:13.482Z,6.30
2023-04-18T06:33:41.755Z,5.80
2023-04-18T06:36:10.774Z,5.90
2023-04-18T06:38:38.986Z,5.40
2023-04-18T06:41:07.905Z,5.30
2023-04-18T06:43:36.279Z,5.10
2023-04-18T06:46:05.154Z,5.30
2023-04-18T06:48:33.955Z,5.50
2023-04-18T06:51:02.951Z,5.10
2023-04-18T06:53:30.944Z,5.50
2023-04-18T06:55:58.907Z,5.10
2023-04-18T06:58:27.984Z,5.30
2023-04-18T07:00:55.966Z,5.30
2023-04-18T07:03:24.488Z,5.00
2023-04-18T07:05:52.720Z,4.80
2023-04-18T07:08:20.632Z,5.10
2023-04-18T07:10:48.763Z,4.40
2023-04-18T07:13:17.251Z,5.30
2023-04-18T07:15:45.343Z,4.90
2023-04-18T07:18:18.014Z,4.10
2023-04-18T07:20:51.646Z,5.00
2023-04-18T07:23:20.189Z,4.90
2023-04-18T07:25:48.158Z,4.50
2023-04-18T07:28:17.615Z,4.20
2023-04-18T07:30:46.561Z,3.70
2023-04-18T07:33:15.352Z,4.40
2023-04-18T07:35:46.089Z,3.90
2023-04-18T07:38:14.036Z,4.20
2023-04-18T07:40:42.115Z,4.00
2023-04-18T07:43:10.058Z,3.80
2023-04-18T07:45:38.663Z,3.90
2023-04-18T07:48:07.806Z,4.00
2023-04-18T07:50:37.247Z,4.30
2023-04-18T07:53:05.188Z,4.20
2023-04-18T07:55:33.681Z,3.70
2023-04-18T07:58:01.847Z,3.40
2023-04-18T08:00:32.762Z,4.00
2023-04-18T08:03:01.201Z,3.90
2023-04-18T08:05:29.555Z,4.10
2023-04-18T08:07:57.414Z,3.80
2023-04-18T08:10:26.207Z,3.90
2023-04-18T08:12:54.063Z,3.90
2023-04-18T08:15:21.960Z,4.40
2023-04-18T08:17:51.728Z,3.80
2023-04-18T08:20:19.894Z,3.90
2023-04-18T08:23:05.098Z,4.30
2023-04-18T08:25:36.713Z,3.90
2023-04-18T08:28:06.663Z,4.50
2023-04-18T08:30:35.465Z,4.30
2023-04-18T08:33:03.488Z,3.90
2023-04-18T08:35:31.514Z,4.70
2023-04-18T08:38:03.078Z,4.20
2023-04-18T08:40:31.078Z,3.40
2023-04-18T08:42:59.337Z,4.40
2023-04-18T08:45:28.891Z,4.40
2023-04-18T08:47:58.926Z,3.90
2023-04-18T08:50:27.796Z,4.20
2023-04-18T08:52:56.211Z,4.30
2023-04-18T08:55:24.224Z,4.70
2023-04-18T08:57:54.607Z,4.30
2023-04-18T09:00:23.762Z,3.70
2023-04-18T09:02:56.853Z,3.30
2023-04-18T09:05:26.826Z,3.70
2023-04-18T09:07:55.272Z,3.80
2023-04-18T09:10:29.957Z,3.60
2023-04-18T09:12:58.526Z,3.50
2023-04-18T09:15:27.329Z,3.90
2023-04-18T09:17:58.389Z,3.90
2023-04-18T09:20:41.450Z,4.50
2023-04-18T09:23:11.197Z,4.40
2023-04-18T09:25:45.245Z,4.70
2023-04-18T09:28:28.826Z,3.60
2023-04-18T09:31:17.908Z,3.70
2023-04-18T09:33:56.980Z,4.40
2023-04-18T09:36:29.249Z,4.30
2023-04-18T09:38:57.514Z,4.70
2023-04-18T09:41:27.586Z,4.30
2023-04-18T09:44:13.515Z,4.40
2023-04-18T09:46:46.653Z,4.30
2023-04-18T09:49:17.264Z,4.40
2023-04-18T09:51:46.329Z,3.80
2023-04-18T09:54:18.227Z,4.70
2023-04-18T09:56:47.007Z,4.20
2023-04-18T09:59:18.681Z,4.00
2023-04-18T10:01:48.634Z,4.90
2023-04-18T10:04:17.044Z,4.20
2023-04-18T10:06:45.826Z,3.40
2023-04-18T10:09:16.154Z,2.30
2023-04-18T10:11:44.525Z,3.30
2023-04-18T10:14:13.880Z,2.90
2023-04-18T10:16:42.349Z,3.20
2023-04-18T10:19:26.957Z,3.20
2023-04-18T10:21:59.141Z,3.60
2023-04-18T10:24:49.929Z,3.50
2023-04-18T10:27:19.611Z,3.10
2023-04-18T10:29:51.521Z,3.10
2023-04-18T10:32:23.593Z,3.30
2023-04-18T10:34:53.900Z,2.80
2023-04-18T10:37:22.097Z,2.80
2023-04-18T10:40:11.239Z,2.00
2023-04-18T10:42:45.844Z,2.60
2023-04-18T10:45:21.052Z,2.80
2023-04-18T10:47:50.370Z,2.50
2023-04-18T10:50:18.305Z,3.20
2023-04-18T10:52:47.312Z,3.10
2023-04-18T10:55:17.764Z,2.60
2023-04-18T10:57:47.277Z,3.10
2023-04-18T11:00:17.609Z,3.00
2023-04-18T11:02:50.299Z,3.20
2023-04-18T11:05:19.805Z,3.40
2023-04-18T11:07:50.421Z,2.60
2023-04-18T11:10:20.533Z,3.10
2023-04-18T11:12:48.601Z,3.00
2023-04-18T11:15:26.296Z,3.00
2023-04-18T11:17:55.892Z,3.20
2023-04-18T11:20:23.924Z,3.10
2023-04-18T11:22:53.752Z,2.90
2023-04-18T11:25:30.554Z,2.90
2023-04-18T11:27:59.934Z,2.90
2023-04-18T11:30:29.270Z,3.20
2023-04-18T11:32:57.235Z,3.00
2023-04-18T11:35:25.551Z,3.50
2023-04-18T11:37:54.307Z,2.70
2023-04-18T11:40:22.229Z,2.70
2023-04-18T11:42:50.436Z,3.50
2023-04-18T11:45:18.367Z,3.90
2023-04-18T11:47:46.372Z,3.70
2023-04-18T11:50:14.494Z,3.60
2023-04-18T11:52:42.921Z,3.50
2023-04-18T11:55:21.375Z,3.00
2023-04-18T11:57:53.971Z,3.20
2023-04-18T12:00:31.243Z,3.40
2023-04-18T12:02:59.934Z,3.50
2023-04-18T12:05:35.878Z,3.50
2023-04-18T12:08:11.932Z,3.40
2023-04-18T12:10:52.919Z,3.30
2023-04-18T12:13:31.889Z,3.50
2023-04-18T12:16:01.740Z,3.20
2023-04-18T12:18:31.574Z,2.50
2023-04-18T12:21:02.004Z,3.40
2023-04-18T12:23:42.519Z,2.90
2023-04-18T12:26:15.152Z,3.20
2023-04-18T12:28:44.859Z,3.20
2023-04-18T12:31:13.018Z,3.70
2023-04-18T12:33:41.119Z,3.60
2023-04-18T12:36:10.564Z,3.80
2023-04-18T12:38:38.522Z,5.10
2023-04-18T12:41:06.730Z,5.40
2023-04-18T12:43:36.312Z,5.70
2023-04-18T12:46:04.187Z,5.80
2023-04-18T12:48:32.721Z,5.80
2023-04-18T12:51:00.741Z,5.00
2023-04-18T12:53:28.805Z,6.90
2023-04-18T12:55:56.671Z,6.00
2023-04-18T12:58:24.546Z,6.50
2023-04-18T13:00:52.630Z,6.50
2023-04-18T13:03:21.308Z,6.40
2023-04-18T13:05:49.384Z,6.90
2023-04-18T13:08:18.230Z,8.10
2023-04-18T13:10:47.700Z,7.80
2023-04-18T13:13:16.202Z,8.20
2023-04-18T13:15:44.349Z,7.20
2023-04-18T13:18:12.283Z,7.60
2023-04-18T13:20:40.700Z,9.50
2023-04-18T13:23:08.937Z,11.60
2023-04-18T13:25:38.774Z,8.40
2023-04-18T13:28:06.895Z,8.30
2023-04-18T13:30:35.990Z,7.60
2023-04-18T13:33:04.511Z,8.00
2023-04-18T13:35:32.516Z,7.80
2023-04-18T13:38:00.732Z,6.10
2023-04-18T13:40:28.959Z,7.20
2023-04-18T13:42:57.868Z,7.10
2023-04-18T13:45:25.809Z,6.20
2023-04-18T13:47:54.144Z,5.70
2023-04-18T13:50:24.455Z,5.40
2023-04-18T13:52:54.648Z,5.20
2023-04-18T13:55:22.924Z,5.30
2023-04-18T13:57:51.316Z,4.30
2023-04-18T14:00:19.720Z,5.50
2023-04-18T14:02:48.075Z,4.70
2023-04-18T14:05:16.418Z,4.70
2023-04-18T14:07:44.615Z,3.40
2023-04-18T14:10:12.786Z,2.70
2023-04-18T14:12:41.008Z,2.50
2023-04-18T14:15:10.927Z,4.00
2023-04-18T14:17:39.116Z,3.80
2023-04-18T14:20:08.602Z,3.50
2023-04-18T14:22:37.009Z,2.90
2023-04-18T14:25:05.420Z,1.70
2023-04-18T14:27:33.675Z,3.20
2023-04-18T14:30:01.603Z,2.10
2023-04-18T14:32:30.467Z,3.20
2023-04-18T14:34:59.355Z,3.40
2023-04-18T14:37:27.863Z,3.20
2023-04-18T14:39:55.959Z,2.60
2023-04-18T14:42:23.927Z,3.70
2023-04-18T14:44:51.867Z,3.10
2023-04-18T14:47:20.061Z,3.30
2023-04-18T14:49:48.232Z,2.80
2023-04-18T14:52:16.213Z,3.30
2023-04-18T14:54:44.268Z,2.40
2023-04-18T14:57:13.019Z,2.90
2023-04-18T14:59:41.022Z,3.30
2023-04-18T15:02:09.061Z,3.00
2023-04-18T15:04:37.406Z,2.80
2023-04-18T15:07:05.614Z,2.80
2023-04-18T15:09:40.001Z,2.40
2023-04-18T15:12:09.212Z,2.50
2023-04-18T15:14:37.828Z,3.20
2023-04-18T15:17:05.860Z,2.90
2023-04-18T15:19:34.547Z,3.40
2023-04-18T15:24:43.868Z,3.10
2023-04-18T15:27:11.874Z,3.40
2023-04-18T15:29:39.824Z,3.30
2023-04-18T15:32:08.129Z,3.30
2023-04-18T15:34:36.182Z,3.30
2023-04-18T15:37:04.775Z,3.40
2023-04-18T15:39:32.769Z,3.30
2023-04-18T15:42:00.735Z,2.70
2023-04-18T15:44:30.824Z,3.60
2023-04-18T15:47:01.158Z,2.50
2023-04-18T15:49:29.616Z,3.30
2023-04-18T15:51:57.554Z,2.60
2023-04-18T15:54:26.284Z,3.40
2023-04-18T15:56:54.295Z,3.20
2023-04-18T15:59:22.301Z,3.00
2023-04-18T16:01:50.339Z,3.20
2023-04-18T16:04:18.376Z,2.90
2023-04-18T16:06:46.378Z,3.50
2023-04-18T16:09:14.598Z,2.90
2023-04-18T16:11:42.570Z,3.70
2023-04-18T16:14:10.555Z,3.40
2023-04-18T16:16:38.542Z,3.80
2023-04-18T16:19:06.481Z,3.70
2023-04-18T16:21:34.611Z,3.90
2023-04-18T16:24:02.550Z,3.20
2023-04-18T16:26:30.699Z,3.80
2023-04-18T16:28:59.106Z,3.80
2023-04-18T16:31:27.068Z,3.50
2023-04-18T16:33:56.256Z,2.80
2023-04-18T16:36:24.232Z,4.00
2023-04-18T16:38:52.170Z,3.30
2023-04-18T16:41:20.178Z,3.80
2023-04-18T16:43:48.186Z,3.30
2023-04-18T16:46:16.192Z,3.40
2023-04-18T16:48:45.336Z,3.70
2023-04-18T16:51:14.668Z,3.30
2023-04-18T16:53:46.009Z,3.40
2023-04-18T16:56:15.755Z,3.70
2023-04-18T16:58:43.674Z,3.60
2023-04-18T17:01:11.644Z,3.50
2023-04-18T17:03:39.901Z,3.40
2023-04-18T17:06:08.020Z,2.90
2023-04-18T17:08:37.304Z,3.70
2023-04-18T17:11:05.302Z,3.50
2023-04-18T17:13:33.300Z,3.40
2023-04-18T17:16:01.336Z,3.90
2023-04-18T17:18:29.641Z,3.70
2023-04-18T17:20:57.771Z,2.70
2023-04-18T17:23:25.952Z,3.40
2023-04-18T17:25:56.029Z,3.30
2023-04-18T17:28:23.918Z,3.20
2023-04-18T17:30:52.151Z,3.30
2023-04-18T17:33:21.214Z,3.20
2023-04-18T17:35:50.426Z,3.30
2023-04-18T17:38:18.358Z,3.60
2023-04-18T17:40:46.368Z,3.70
2023-04-18T17:43:14.443Z,3.30
2023-04-18T17:45:42.634Z,3.70
2023-04-18T17:48:10.705Z,4.60
2023-04-18T17:50:38.809Z,3.70
2023-04-18T17:53:06.684Z,3.90
2023-04-18T17:55:35.697Z,3.40
2023-04-18T17:58:05.192Z,3.60
2023-04-18T18:00:33.379Z,3.60
2023-04-18T18:03:02.491Z,3.60
2023-04-18T18:05:32.371Z,3.90
2023-04-18T18:08:01.076Z,3.30
2023-04-18T18:10:31.219Z,3.70
2023-04-18T18:12:59.152Z,4.30
2023-04-18T18:15:27.061Z,4.70
2023-04-18T18:17:56.397Z,4.30
2023-04-18T18:20:24.539Z,4.10
2023-04-18T18:22:52.740Z,3.70
2023-04-18T18:25:20.926Z,4.00
2023-04-18T18:27:49.980Z,4.10
2023-04-18T18:30:19.002Z,3.70
2023-04-18T18:32:47.032Z,4.00
2023-04-18T18:35:16.216Z,3.50
2023-04-18T18:37:44.431Z,3.80
2023-04-18T18:40:12.600Z,3.70
2023-04-18T18:42:42.632Z,4.30
2023-04-18T18:45:10.633Z,3.80
2023-04-18T18:47:40.006Z,3.60
2023-04-18T18:50:08.672Z,4.50
2023-04-18T18:52:37.066Z,4.10
2023-04-18T18:55:07.406Z,3.70
2023-04-18T18:57:35.594Z,3.30
2023-04-18T19:00:10.995Z,3.70
2023-04-18T19:02:39.764Z,3.10
2023-04-18T19:05:08.177Z,4.10
2023-04-18T19:07:41.775Z,3.70
2023-04-18T19:10:10.382Z,3.60
2023-04-18T19:12:38.389Z,4.10
2023-04-18T19:15:07.117Z,4.60
2023-04-18T19:17:35.901Z,4.20
2023-04-18T19:20:04.252Z,4.30
2023-04-18T19:22:32.577Z,4.20
2023-04-18T19:25:00.987Z,4.60
2023-04-18T19:27:29.078Z,4.70
2023-04-18T19:29:57.159Z,4.50
2023-04-18T19:32:26.905Z,5.10
2023-04-18T19:34:54.798Z,4.60
2023-04-18T19:37:23.120Z,4.60
2023-04-18T19:39:51.071Z,4.90
2023-04-18T19:42:18.989Z,4.60
2023-04-18T19:44:46.992Z,4.90
2023-04-18T19:47:15.453Z,5.20
2023-04-18T19:49:44.424Z,4.40
2023-04-18T19:52:14.792Z,4.80
2023-04-18T19:54:42.674Z,5.30
2023-04-18T19:57:12.583Z,4.70
2023-04-18T19:59:40.704Z,5.30
2023-04-18T20:02:09.130Z,5.90
2023-04-18T20:04:37.641Z,5.20
2023-04-18T20:07:05.728Z,5.00
2023-04-18T20:09:33.616Z,5.60
2023-04-18T20:12:02.918Z,5.70
2023-04-18T20:14:31.948Z,4.80
2023-04-18T20:16:59.827Z,5.20
2023-04-18T20:19:29.836Z,5.80
2023-04-18T20:21:58.026Z,5.60
2023-04-18T20:24:28.175Z,5.30
2023-04-18T20:26:59.024Z,5.00
2023-04-18T20:29:27.911Z,5.30
2023-04-18T20:31:56.113Z,5.60
2023-04-18T20:34:24.630Z,6.30
2023-04-18T20:36:52.632Z,5.50
2023-04-18T20:39:20.831Z,4.90
2023-04-18T20:41:52.496Z,5.30
2023-04-18T20:44:21.807Z,5.40
2023-04-18T20:46:49.804Z,5.20
2023-04-18T20:49:17.835Z,4.90
2023-04-18T20:51:46.137Z,5.00
2023-04-18T20:54:14.427Z,5.40
2023-04-18T20:56:42.633Z,5.30
2023-04-18T20:59:10.554Z,5.60
2023-04-18T21:01:38.642Z,5.20
2023-04-18T21:04:06.704Z,5.10
2023-04-18T21:06:35.107Z,5.40
2023-04-18T21:09:03.026Z,5.30
2023-04-18T21:11:31.421Z,5.10
2023-04-18T21:13:59.777Z,5.20
2023-04-18T21:16:27.710Z,5.40
2023-04-18T21:18:55.788Z,5.10
2023-04-18T21:21:24.379Z,5.00
2023-04-18T21:23:52.373Z,4.80
2023-04-18T21:26:20.679Z,4.60
2023-04-18T21:28:59.193Z,4.80
2023-04-18T21:31:29.049Z,4.90
2023-04-18T21:33:58.128Z,4.40
2023-04-18T21:36:27.073Z,4.70
2023-04-18T21:38:55.529Z,4.90
2023-04-18T21:41:23.619Z,4.80
2023-04-18T21:43:51.687Z,4.40
2023-04-18T21:46:19.863Z,4.80
2023-04-18T21:48:48.285Z,4.70
2023-04-18T21:51:16.920Z,5.00
2023-04-18T21:53:45.935Z,4.70
2023-04-18T21:56:14.294Z,4.70
2023-04-18T21:58:42.393Z,4.80
2023-04-18T22:01:10.522Z,4.50
2023-04-18T22:03:38.704Z,4.60
2023-04-18T22:06:06.803Z,4.10
2023-04-18T22:08:34.781Z,4.10
2023-04-18T22:11:02.736Z,4.00
2023-04-18T22:13:33.204Z,4.20
2023-04-18T22:16:03.531Z,4.30
2023-04-18T22:18:34.547Z,4.40
2023-04-18T22:21:03.409Z,4.20
2023-04-18T22:23:31.672Z,3.70
2023-04-18T22:25:59.581Z,3.90
2023-04-18T22:28:30.382Z,4.10
2023-04-18T22:30:58.370Z,3.90
2023-04-18T22:33:26.731Z,3.70
2023-04-18T22:35:55.818Z,3.70
2023-04-18T22:38:25.081Z,4.00
2023-04-18T22:40:53.086Z,4.00
2023-04-18T22:43:24.053Z,3.90
2023-04-18T22:45:52.407Z,3.60
2023-04-18T22:48:20.609Z,4.20
2023-04-18T22:50:50.050Z,3.90
2023-04-18T22:53:18.400Z,3.60
2023-04-18T22:55:47.357Z,4.00
2023-04-18T22:58:15.252Z,3.80
2023-04-18T23:00:43.131Z,3.60
2023-04-18T23:03:11.428Z,3.50
2023-04-18T23:05:40.271Z,3.60
2023-04-18T23:08:08.485Z,4.10
2023-04-18T23:10:36.588Z,3.90
2023-04-18T23:13:04.596Z,3.90
2023-04-18T23:15:32.672Z,3.60
2023-04-18T23:18:00.762Z,3.80
2023-04-18T23:20:29.467Z,3.50
2023-04-18T23:22:57.352Z,4.10
2023-04-18T23:25:25.430Z,3.60
2023-04-18T23:27:53.298Z,3.60
2023-04-18T23:30:21.164Z,3.90
2023-04-18T23:32:49.184Z,3.70
2023-04-18T23:35:17.326Z,3.90
2023-04-18T23:37:45.703Z,3.50
2023-04-18T23:40:13.660Z,3.60
2023-04-18T23:42:42.222Z,3.80
2023-04-18T23:45:10.817Z,3.70
2023-04-18T23:47:39.758Z,3.50
2023-04-18T23:50:09.733Z,3.80
2023-04-18T23:52:38.811Z,3.70
2023-04-18T23:55:06.968Z,3.60
2023-04-18T23:57:35.071Z,3.40
